createdAt,value
2022-11-27T00:13:27.214Z,2497.6706
2022-11-27T00:28:29.307Z,2509.36381
2022-11-27T00:43:32.495Z,2344.70742
2022-11-27T00:58:41.768Z,2292.55825
2022-11-27T01:13:43.675Z,2227.76443
2022-11-27T01:28:45.646Z,2178.86229
2022-11-27T01:43:47.584Z,2168.28529
2022-11-27T01:58:49.542Z,2261.60388
2022-11-27T02:13:51.471Z,2284.74049
2022-11-27T02:28:53.378Z,2298.45677
2022-11-27T02:43:55.294Z,2355.0093
2022-11-27T02:58:57.290Z,2431.94244
2022-11-27T03:13:59.178Z,2483.78179
2022-11-27T03:29:01.072Z,2547.52903
2022-11-27T03:44:02.997Z,2604.47088
2022-11-27T03:59:04.925Z,2682.6832
2022-11-27T04:14:06.830Z,2720.81271
2022-11-27T04:29:08.757Z,2777.2026
2022-11-27T04:44:10.659Z,2875.53701
2022-11-27T04:59:12.583Z,2878.62566
2022-11-27T05:14:14.490Z,2887.93156
2022-11-27T05:29:16.484Z,2932.16683
2022-11-27T05:44:18.387Z,2984.41033
2022-11-27T05:59:20.301Z,2954.79656
2022-11-27T06:14:22.200Z,2984.41033
2022-11-27T06:29:24.099Z,2891.04692
2022-11-27T06:44:26.017Z,2688.06471
2022-11-27T06:59:27.958Z,2607.00441
2022-11-27T07:14:30.070Z,2740.28682
2022-11-27T07:29:31.984Z,2637.79579
2022-11-27T07:44:33.892Z,2386.46534
2022-11-27T07:59:35.799Z,2369.58495
2022-11-27T08:14:38.385Z,2276.97587
2022-11-27T08:29:40.452Z,2445.25599
2022-11-27T08:44:42.719Z,1668.74271
2022-11-27T08:59:44.973Z,1921.14745
2022-11-27T09:14:46.892Z,1977.86028
2022-11-27T09:29:48.790Z,1992.56556
2022-11-27T09:44:50.707Z,2164.78241
2022-11-27T09:59:52.621Z,2211.22163
2022-11-27T10:14:54.545Z,2218.54355
2022-11-27T10:29:56.450Z,2280.85157
2022-11-27T10:44:58.360Z,2340.61186
2022-11-27T11:00:00.300Z,2318.33961
2022-11-27T11:15:02.152Z,2338.56944
2022-11-27T11:30:04.131Z,2458.71611
2022-11-27T11:45:05.995Z,2427.53674
2022-11-27T12:00:07.903Z,2397.13826
2022-11-27T12:15:09.818Z,2493.02377
2022-11-27T12:30:11.722Z,2467.77215
2022-11-27T12:45:13.639Z,2431.94244
2022-11-27T13:00:15.696Z,2483.78179
2022-11-27T13:15:17.563Z,2552.38147
2022-11-27T13:30:19.447Z,2490.70683
2022-11-27T13:45:21.301Z,2549.95294
2022-11-27T14:00:23.161Z,2571.97748
2022-11-27T14:15:24.984Z,2559.69488
2022-11-27T14:30:26.846Z,2591.87673
2022-11-27T14:45:28.694Z,2734.6944
2022-11-27T15:00:30.533Z,2693.46786
2022-11-27T15:15:32.424Z,2680.00052
2022-11-27T15:30:34.339Z,2745.90216
2022-11-27T15:45:36.328Z,2734.6944
2022-11-27T16:00:38.283Z,2748.71847
2022-11-27T16:15:40.125Z,2680.00052
2022-11-27T16:30:41.940Z,2712.55113
2022-11-27T16:45:43.977Z,2726.34844
2022-11-27T17:00:45.912Z,2771.45864
2022-11-27T17:15:47.830Z,2854.10063
2022-11-27T17:30:49.714Z,2916.21381
2022-11-27T17:45:51.658Z,2832.9815
2022-11-27T18:00:53.672Z,2854.10063
2022-11-27T18:15:55.604Z,2688.06471
2022-11-27T18:30:57.506Z,2729.12476
2022-11-27T18:45:59.489Z,2720.81271
2022-11-27T19:01:01.525Z,2919.39051
2022-11-27T19:16:03.450Z,2974.47334
2022-11-27T19:31:05.387Z,3043.72564
2022-11-27T19:46:07.348Z,2941.8227
2022-11-27T20:01:09.420Z,2925.76472
2022-11-27T20:16:11.482Z,2894.169
2022-11-27T20:31:13.545Z,2881.72096
2022-11-27T20:46:15.624Z,2785.86331
2022-11-27T21:01:17.679Z,2757.20217
2022-11-27T21:16:19.679Z,2731.90674
2022-11-27T21:31:21.743Z,2698.89277
2022-11-27T21:46:23.774Z,2661.37093
2022-11-27T22:01:25.875Z,2704.33957
2022-11-27T22:16:27.881Z,2757.20217
2022-11-27T22:31:30.051Z,2768.59557
2022-11-27T22:46:32.123Z,2740.28682
2022-11-27T23:01:34.023Z,2720.81271
2022-11-27T23:16:36.023Z,2809.22484
2022-11-27T23:31:38.050Z,2743.09162
2022-11-27T23:46:40.064Z,2715.29941
